Time;durP1;ratioP1;P1;durP2;ratioP2;P2;SDS_P1;SDS_P2;PMS_P1;PMS_P2;Temp;Humidity;BMP_temperature;BMP_pressure;BME280_temperature;BME280_humidity;BME280_pressure;Samples;Min_cycle;Max_cycle;Signal;HPM_P1;HPM_P2
2024/01/28 00:00:34;;;;;;;;;;;;;;;;;;5093845;28;1967;-61
2024/01/28 00:02:59;;;;;;;;;;;;;;;;;;5094400;28;880;-61
2024/01/28 00:05:26;;;;;;;;;;;;;;;;;;5094680;28;1250;-62
2024/01/28 00:07:51;;;;;;;;;;;;;;;;;;5094501;28;926;-62
2024/01/28 00:10:16;;;;;;;;;;;;;;;;;;5094249;28;832;-62
2024/01/28 00:12:41;;;;;;;;;;;;;;;;;;5094120;28;991;-61
2024/01/28 00:15:07;;;;;;;;;;;;;;;;;;5093734;28;844;-61
2024/01/28 00:17:33;;;;;;;;;;;;;;;;;;5094155;28;1010;-61
2024/01/28 00:19:58;;;;;;;;;;;;;;;;;;5093832;28;1914;-61
2024/01/28 00:22:23;;;;;;;;;;;;;;;;;;5091064;28;1218;-61
2024/01/28 00:24:48;;;;;;;;;;;;;;;;;;5091487;28;1147;-61
2024/01/28 00:27:14;;;;;;;;;;;;;;;;;;5093523;28;931;-61
2024/01/28 00:29:39;;;;;;;;;;;;;;;;;;5093468;28;896;-61
2024/01/28 00:32:04;;;;;;;;;;;;;;;;;;5075856;28;1046;-61
2024/01/28 00:34:29;;;;;;;;;;;;;;;;;;5093908;28;840;-61
2024/01/28 00:36:55;;;;;;;;;;;;;;;;;;5093862;28;978;-61
2024/01/28 00:39:20;;;;;;;;;;;;;;;;;;5075541;28;1194;-60
2024/01/28 00:41:45;;;;;;;;;;;;;;;;;;5093441;28;1946;-60
2024/01/28 00:44:11;;;;;;;;;;;;;;;;;;5093754;28;1049;-60
2024/01/28 00:46:36;;;;;;;;;;;;;;;;;;5093832;28;959;-61
2024/01/28 00:49:02;;;;;;;;;;;;;;;;;;5093437;28;841;-61
2024/01/28 00:51:27;;;;;;;;;;;;;;;;;;5092831;28;939;-60
2024/01/28 00:53:53;;;;;;;;;;;;;;;;;;5092424;28;888;-67
2024/01/28 00:56:18;;;;;;;;;;;;;;;;;;5093068;28;1045;-68
2024/01/28 00:58:44;;;;;;;;;;;;;;;;;;5093621;28;880;-67
2024/01/28 01:01:09;;;;;;;;;;;;;;;;;;5093378;28;1914;-67
2024/01/28 01:03:34;;;;;;;;;;;;;;;;;;5093892;28;995;-61
2024/01/28 01:06:00;;;;;;;;;;;;;;;;;;5093615;28;966;-62
2024/01/28 01:08:25;;;;;;;;;;;;;;;;;;5093195;28;963;-62
2024/01/28 01:10:51;;;;;;;;;;;;;;;;;;5093485;28;788;-62
2024/01/28 01:13:16;;;;;;;;;;;;;;;;;;5093325;28;895;-62
2024/01/28 01:15:41;;;;;;;;;;;;;;;;;;5092882;28;971;-62
2024/01/28 01:18:07;;;;;;;;;;;;;;;;;;5093287;28;884;-62
2024/01/28 01:20:33;;;;;;;;;;;;;;;;;;5093311;28;1906;-61
2024/01/28 01:22:58;;;;;;;;;;;;;;;;;;5093249;28;895;-62
2024/01/28 01:25:24;;;;;;;;;;;;;;;;;;5093196;28;940;-62
2024/01/28 01:27:49;;;;;;;;;;;;;;;;;;5093270;28;839;-68
2024/01/28 01:30:14;;;;;;;;;;;;;;;;;;5092557;28;816;-68
2024/01/28 01:32:40;;;;;;;;;;;;;;;;;;5093164;28;816;-68
2024/01/28 01:35:07;;;;;;;;;;;;;;;;;;5093201;28;1575;-68
2024/01/28 01:37:32;;;;;;;;;;;;;;;;;;5094093;28;867;-68
2024/01/28 01:39:58;;;;;;;;;;;;;;;;;;5097231;28;1976;-68
2024/01/28 01:42:23;;;;;;;;;;;;;;;;;;5096754;28;876;-69
2024/01/28 01:44:48;;;;;;;;;;;;;;;;;;5096775;28;796;-68
2024/01/28 01:47:13;;;;;;;;;;;;;;;;;;5096707;28;812;-68
2024/01/28 01:49:39;;;;;;;;;;;;;;;;;;5093910;28;1238;-67
2024/01/28 01:52:06;;;;;;;;;;;;;;;;;;5093047;28;1178;-66
2024/01/28 01:54:31;;;;;;;;;;;;;;;;;;5094595;28;1210;-67
2024/01/28 01:56:56;;;;;;;;;;;;;;;;;;5096074;28;1028;-67
2024/01/28 01:59:22;;;;;;;;;;;;;;;;;;5096467;28;848;-68
2024/01/28 02:01:47;;;;;;;;;;;;;;;;;;5097097;28;1975;-66
2024/01/28 02:04:13;;;;;;;;;;;;;;;;;;5096786;28;800;-67
2024/01/28 02:06:38;;;;;;;;;;;;;;;;;;5096333;28;821;-67
2024/01/28 02:09:05;;;;;;;;;;;;;;;;;;5096178;28;1029;-67
2024/01/28 02:11:31;;;;;;;;;;;;;;;;;;5096399;28;852;-68
2024/01/28 02:13:56;;;;;;;;;;;;;;;;;;5095806;28;912;-66
2024/01/28 02:16:23;;;;;;;;;;;;;;;;;;5095756;28;856;-68
2024/01/28 02:18:48;;;;;;;;;;;;;;;;;;5095809;28;1069;-67
2024/01/28 02:21:14;;;;;;;;;;;;;;;;;;5095873;28;1959;-60
2024/01/28 02:23:39;;;;;;;;;;;;;;;;;;5095798;28;950;-61
2024/01/28 02:26:04;;;;;;;;;;;;;;;;;;5095713;28;824;-61
2024/01/28 02:28:29;;;;;;;;;;;;;;;;;;5096170;28;927;-61
2024/01/28 02:30:55;;;;;;;;;;;;;;;;;;5096699;28;950;-60
2024/01/28 02:33:20;;;;;;;;;;;;;;;;;;5096506;28;904;-60
2024/01/28 02:35:45;;;;;;;;;;;;;;;;;;5094944;28;1179;-60
2024/01/28 02:38:11;;;;;;;;;;;;;;;;;;5092408;28;1151;-61
2024/01/28 02:40:37;;;;;;;;;;;;;;;;;;5091518;28;1910;-61
2024/01/28 02:43:04;;;;;;;;;;;;;;;;;;5092176;28;1163;-61
2024/01/28 02:45:30;;;;;;;;;;;;;;;;;;5095509;28;1182;-60
2024/01/28 02:47:55;;;;;;;;;;;;;;;;;;5095365;28;891;-60
2024/01/28 02:50:20;;;;;;;;;;;;;;;;;;5094441;28;1010;-61
2024/01/28 02:52:46;;;;;;;;;;;;;;;;;;5095617;28;908;-62
2024/01/28 02:55:11;;;;;;;;;;;;;;;;;;5095954;28;895;-61
2024/01/28 02:57:36;;;;;;;;;;;;;;;;;;5095269;28;1039;-62
2024/01/28 03:00:03;;;;;;;;;;;;;;;;;;5095580;28;1967;-62
2024/01/28 03:02:28;;;;;;;;;;;;;;;;;;5095319;28;887;-62
2024/01/28 03:04:54;;;;;;;;;;;;;;;;;;5095314;28;939;-61
2024/01/28 03:07:19;;;;;;;;;;;;;;;;;;5095282;28;1065;-61
2024/01/28 03:09:44;;;;;;;;;;;;;;;;;;5095309;28;1046;-62
2024/01/28 03:12:09;;;;;;;;;;;;;;;;;;5095350;28;840;-61
2024/01/28 03:14:34;;;;;;;;;;;;;;;;;;5095195;28;793;-62
2024/01/28 03:17:00;;;;;;;;;;;;;;;;;;5095692;28;1195;-62
2024/01/28 03:19:25;;;;;;;;;;;;;;;;;;5095185;28;986;-62
2024/01/28 03:21:50;;;;;;;;;;;;;;;;;;5095243;28;1901;-61
2024/01/28 03:24:15;;;;;;;;;;;;;;;;;;5095453;28;1022;-62
2024/01/28 03:26:40;;;;;;;;;;;;;;;;;;5094952;28;907;-61
2024/01/28 03:29:06;;;;;;;;;;;;;;;;;;5077255;28;1371;-61
2024/01/28 03:31:31;;;;;;;;;;;;;;;;;;5095396;28;895;-61
2024/01/28 03:33:57;;;;;;;;;;;;;;;;;;5095089;28;1018;-61
2024/01/28 03:36:22;;;;;;;;;;;;;;;;;;5094773;28;943;-61
2024/01/28 03:38:48;;;;;;;;;;;;;;;;;;5094541;28;887;-61
2024/01/28 03:41:13;;;;;;;;;;;;;;;;;;5095047;28;1902;-61
2024/01/28 03:43:39;;;;;;;;;;;;;;;;;;5094096;28;860;-61
2024/01/28 03:46:06;;;;;;;;;;;;;;;;;;5094545;28;828;-61
2024/01/28 03:48:31;;;;;;;;;;;;;;;;;;5094929;28;888;-64
2024/01/28 03:50:57;;;;;;;;;;;;;;;;;;5094603;28;880;-61
2024/01/28 03:53:22;;;;;;;;;;;;;;;;;;5094153;28;950;-61
2024/01/28 03:55:47;;;;;;;;;;;;;;;;;;5093883;28;994;-61
2024/01/28 03:58:12;;;;;;;;;;;;;;;;;;5094090;28;879;-61
2024/01/28 04:00:38;;;;;;;;;;;;;;;;;;5075243;28;1950;-60
2024/01/28 04:03:03;;;;;;;;;;;;;;;;;;5094106;28;1030;-60
2024/01/28 04:05:28;;;;;;;;;;;;;;;;;;5093631;28;1014;-61
2024/01/28 04:07:54;;;;;;;;;;;;;;;;;;5094531;28;816;-62
2024/01/28 04:10:19;;;;;;;;;;;;;;;;;;5094196;28;844;-60
2024/01/28 04:12:44;;;;;;;;;;;;;;;;;;5093480;28;832;-61
2024/01/28 04:15:09;;;;;;;;;;;;;;;;;;5093999;28;897;-59
2024/01/28 04:17:35;;;;;;;;;;;;;;;;;;5093737;28;955;-62
2024/01/28 04:20:01;;;;;;;;;;;;;;;;;;5094395;28;924;-62
2024/01/28 04:22:26;;;;;;;;;;;;;;;;;;5093818;28;887;-61
2024/01/28 04:24:51;;;;;;;;;;;;;;;;;;5093524;28;868;-62
2024/01/28 04:27:17;;;;;;;;;;;;;;;;;;5093906;28;995;-62
2024/01/28 04:29:42;;;;;;;;;;;;;;;;;;5094235;28;900;-61
2024/01/28 04:32:10;;;;;;;;;;;;;;;;;;5093574;28;974;-61
2024/01/28 04:34:35;;;;;;;;;;;;;;;;;;5093469;28;848;-60
2024/01/28 04:37:00;;;;;;;;;;;;;;;;;;5093984;28;1061;-61
2024/01/28 04:39:25;;;;;;;;;;;;;;;;;;5093957;28;959;-61
2024/01/28 04:41:50;;;;;;;;;;;;;;;;;;5093528;28;1968;-61
2024/01/28 04:44:16;;;;;;;;;;;;;;;;;;5093539;28;817;-60
2024/01/28 04:46:41;;;;;;;;;;;;;;;;;;5093583;28;850;-60
2024/01/28 04:49:08;;;;;;;;;;;;;;;;;;5094259;28;814;-60
2024/01/28 04:51:33;;;;;;;;;;;;;;;;;;5093862;28;829;-61
2024/01/28 04:53:58;;;;;;;;;;;;;;;;;;5093946;28;927;-61
2024/01/28 04:56:24;;;;;;;;;;;;;;;;;;5093323;28;899;-60
2024/01/28 04:58:49;;;;;;;;;;;;;;;;;;5093607;28;1343;-61
2024/01/28 05:01:14;;;;;;;;;;;;;;;;;;5075206;28;1979;-60
2024/01/28 05:03:39;;;;;;;;;;;;;;;;;;5092470;28;1211;-61
2024/01/28 05:06:04;;;;;;;;;;;;;;;;;;5093349;28;999;-60
2024/01/28 05:08:30;;;;;;;;;;;;;;;;;;5093623;28;859;-61
2024/01/28 05:10:56;;;;;;;;;;;;;;;;;;5093515;28;882;-60
2024/01/28 05:13:21;;;;;;;;;;;;;;;;;;5077447;28;717;-61
2024/01/28 05:15:46;;;;;;;;;;;;;;;;;;5097405;28;1077;-61
2024/01/28 05:18:12;;;;;;;;;;;;;;;;;;5097915;28;887;-60
2024/01/28 05:20:37;;;;;;;;;;;;;;;;;;5097512;28;1957;-61
2024/01/28 05:23:02;;;;;;;;;;;;;;;;;;5097498;28;958;-60
2024/01/28 05:25:28;;;;;;;;;;;;;;;;;;5097527;28;848;-60
2024/01/28 05:27:53;;;;;;;;;;;;;;;;;;5097088;28;841;-60
2024/01/28 05:30:19;;;;;;;;;;;;;;;;;;5097280;28;899;-60
2024/01/28 05:32:44;;;;;;;;;;;;;;;;;;5096708;28;820;-61
2024/01/28 05:35:09;;;;;;;;;;;;;;;;;;5096785;28;836;-61
2024/01/28 05:37:37;;;;;;;;;;;;;;;;;;5096726;28;836;-61
2024/01/28 05:40:02;;;;;;;;;;;;;;;;;;5096960;28;808;-61
2024/01/28 05:42:28;;;;;;;;;;;;;;;;;;5096826;28;1918;-61
2024/01/28 05:44:53;;;;;;;;;;;;;;;;;;5096837;28;876;-61
2024/01/28 05:47:18;;;;;;;;;;;;;;;;;;5078326;28;829;-60
2024/01/28 05:49:43;;;;;;;;;;;;;;;;;;5096358;28;1049;-61
2024/01/28 05:52:09;;;;;;;;;;;;;;;;;;5078142;28;1281;-60
2024/01/28 05:54:35;;;;;;;;;;;;;;;;;;5096234;28;963;-61
2024/01/28 05:57:00;;;;;;;;;;;;;;;;;;5096452;28;913;-61
2024/01/28 05:59:26;;;;;;;;;;;;;;;;;;5096142;28;994;-61
2024/01/28 06:01:51;;;;;;;;;;;;;;;;;;5096491;28;1959;-61
2024/01/28 06:04:16;;;;;;;;;;;;;;;;;;5096498;28;1152;-60
2024/01/28 06:06:42;;;;;;;;;;;;;;;;;;5096282;28;904;-61
2024/01/28 06:09:08;;;;;;;;;;;;;;;;;;5096487;28;933;-61
2024/01/28 06:11:36;;;;;;;;;;;;;;;;;;5078366;28;911;-61
2024/01/28 06:14:01;;;;;;;;;;;;;;;;;;5096464;28;856;-62
2024/01/28 06:16:26;;;;;;;;;;;;;;;;;;5096303;28;923;-61
2024/01/28 06:18:51;;;;;;;;;;;;;;;;;;5078414;28;1244;-61
2024/01/28 06:21:17;;;;;;;;;;;;;;;;;;5096346;28;1910;-61
2024/01/28 06:23:42;;;;;;;;;;;;;;;;;;5096109;28;825;-61
2024/01/28 06:26:07;;;;;;;;;;;;;;;;;;5095961;28;750;-61
2024/01/28 06:28:33;;;;;;;;;;;;;;;;;;5096194;28;839;-61
2024/01/28 06:30:58;;;;;;;;;;;;;;;;;;5096547;28;800;-62
2024/01/28 06:33:23;;;;;;;;;;;;;;;;;;5095974;28;1050;-61
2024/01/28 06:35:49;;;;;;;;;;;;;;;;;;5096149;28;932;-61
2024/01/28 06:38:14;;;;;;;;;;;;;;;;;;5096485;28;884;-62
2024/01/28 06:40:39;;;;;;;;;;;;;;;;;;5096048;28;1905;-61
2024/01/28 06:43:04;;;;;;;;;;;;;;;;;;5096600;28;841;-61
2024/01/28 06:45:30;;;;;;;;;;;;;;;;;;5096901;28;1003;-61
2024/01/28 06:47:56;;;;;;;;;;;;;;;;;;5096762;28;845;-61
2024/01/28 06:50:21;;;;;;;;;;;;;;;;;;5096482;28;884;-61
2024/01/28 06:52:47;;;;;;;;;;;;;;;;;;5096644;28;904;-61
2024/01/28 06:55:13;;;;;;;;;;;;;;;;;;5096096;28;959;-61
2024/01/28 06:57:38;;;;;;;;;;;;;;;;;;5095896;28;1019;-60
2024/01/28 07:00:04;;;;;;;;;;;;;;;;;;5096534;28;883;-61
2024/01/28 07:02:30;;;;;;;;;;;;;;;;;;5096014;28;1959;-61
2024/01/28 07:04:55;;;;;;;;;;;;;;;;;;5096220;28;816;-61
2024/01/28 07:07:20;;;;;;;;;;;;;;;;;;5096625;28;852;-60
2024/01/28 07:09:45;;;;;;;;;;;;;;;;;;5095655;28;840;-61
2024/01/28 07:12:11;;;;;;;;;;;;;;;;;;5095550;28;832;-61
2024/01/28 07:14:36;;;;;;;;;;;;;;;;;;5095657;28;901;-61
2024/01/28 07:17:01;;;;;;;;;;;;;;;;;;5095720;28;978;-61
2024/01/28 07:19:27;;;;;;;;;;;;;;;;;;5095720;28;864;-61
2024/01/28 07:21:52;;;;;;;;;;;;;;;;;;5095725;28;1929;-60
2024/01/28 07:24:17;;;;;;;;;;;;;;;;;;5095496;28;809;-61
2024/01/28 07:26:43;;;;;;;;;;;;;;;;;;5095234;28;1061;-61
2024/01/28 07:29:09;;;;;;;;;;;;;;;;;;5095452;28;808;-61
2024/01/28 07:31:34;;;;;;;;;;;;;;;;;;5095565;28;994;-62
2024/01/28 07:33:59;;;;;;;;;;;;;;;;;;5095310;28;896;-61
2024/01/28 07:36:24;;;;;;;;;;;;;;;;;;5094318;28;918;-61
2024/01/28 07:38:50;;;;;;;;;;;;;;;;;;5094561;28;979;-61
2024/01/28 07:41:15;;;;;;;;;;;;;;;;;;5094379;28;1959;-61
2024/01/28 07:43:41;;;;;;;;;;;;;;;;;;5094885;28;816;-61
2024/01/28 07:46:07;;;;;;;;;;;;;;;;;;5093559;28;1202;-61
2024/01/28 07:48:33;;;;;;;;;;;;;;;;;;5090898;28;1072;-61
2024/01/28 07:50:58;;;;;;;;;;;;;;;;;;5094108;28;1132;-61
2024/01/28 07:53:23;;;;;;;;;;;;;;;;;;5094362;28;867;-61
2024/01/28 07:55:48;;;;;;;;;;;;;;;;;;5094425;28;1041;-61
2024/01/28 07:58:14;;;;;;;;;;;;;;;;;;5094344;28;1010;-61
2024/01/28 08:00:39;;;;;;;;;;;;;;;;;;5094015;28;1882;-61
2024/01/28 08:03:04;;;;;;;;;;;;;;;;;;5094266;28;895;-61
2024/01/28 08:05:29;;;;;;;;;;;;;;;;;;5075383;28;1203;-61
2024/01/28 08:07:55;;;;;;;;;;;;;;;;;;5093829;28;966;-61
2024/01/28 08:10:20;;;;;;;;;;;;;;;;;;5093640;28;864;-61
2024/01/28 08:12:45;;;;;;;;;;;;;;;;;;5094007;28;809;-61
2024/01/28 08:15:10;;;;;;;;;;;;;;;;;;5075911;28;927;-61
2024/01/28 08:17:35;;;;;;;;;;;;;;;;;;5093725;28;903;-61
2024/01/28 08:20:01;;;;;;;;;;;;;;;;;;5094058;28;828;-61
2024/01/28 08:22:26;;;;;;;;;;;;;;;;;;5094163;28;1952;-61
2024/01/28 08:24:51;;;;;;;;;;;;;;;;;;5093562;28;844;-61
2024/01/28 08:27:17;;;;;;;;;;;;;;;;;;5093714;28;987;-61
2024/01/28 08:29:43;;;;;;;;;;;;;;;;;;5094141;28;836;-61
2024/01/28 08:32:08;;;;;;;;;;;;;;;;;;5094100;28;828;-60
2024/01/28 08:34:33;;;;;;;;;;;;;;;;;;5094471;28;754;-61
2024/01/28 08:36:59;;;;;;;;;;;;;;;;;;5094328;28;813;-61
2024/01/28 08:39:24;;;;;;;;;;;;;;;;;;5094522;28;955;-61
2024/01/28 08:41:49;;;;;;;;;;;;;;;;;;5094081;28;1889;-61
2024/01/28 08:44:15;;;;;;;;;;;;;;;;;;5076051;28;1205;-62
2024/01/28 08:46:40;;;;;;;;;;;;;;;;;;5094282;28;834;-61
2024/01/28 08:49:06;;;;;;;;;;;;;;;;;;5093469;28;1188;-61
2024/01/28 08:51:31;;;;;;;;;;;;;;;;;;5093462;28;900;-61
2024/01/28 08:53:56;;;;;;;;;;;;;;;;;;5093364;28;891;-61
2024/01/28 08:56:21;;;;;;;;;;;;;;;;;;5079659;28;1337;-61
2024/01/28 08:58:46;;;;;;;;;;;;;;;;;;5092150;28;1045;-61
2024/01/28 09:01:13;;;;;;;;;;;;;;;;;;5093064;28;1963;-61
2024/01/28 09:03:38;;;;;;;;;;;;;;;;;;5093473;28;841;-61
2024/01/28 09:06:05;;;;;;;;;;;;;;;;;;5092913;28;1041;-61
2024/01/28 09:08:30;;;;;;;;;;;;;;;;;;5093132;28;1093;-61
2024/01/28 09:10:56;;;;;;;;;;;;;;;;;;5093613;28;1061;-61
2024/01/28 09:13:22;;;;;;;;;;;;;;;;;;5092919;28;848;-61
2024/01/28 09:15:47;;;;;;;;;;;;;;;;;;5093176;28;825;-61
2024/01/28 09:18:12;;;;;;;;;;;;;;;;;;5093148;28;1039;-60
2024/01/28 09:20:37;;;;;;;;;;;;;;;;;;5092829;28;1886;-61
2024/01/28 09:23:04;;;;;;;;;;;;;;;;;;5092689;28;864;-62
2024/01/28 09:25:29;;;;;;;;;;;;;;;;;;5091912;28;1514;-62
2024/01/28 09:27:55;;;;;;;;;;;;;;;;;;5093233;28;895;-62
2024/01/28 09:30:20;;;;;;;;;;;;;;;;;;5091437;28;856;-62
2024/01/28 09:32:46;;;;;;;;;;;;;;;;;;5092944;28;804;-61
2024/01/28 09:35:12;;;;;;;;;;;;;;;;;;5092680;28;876;-63
2024/01/28 09:37:37;;;;;;;;;;;;;;;;;;5093131;28;924;-61
2024/01/28 09:40:02;;;;;;;;;;;;;;;;;;5093292;28;872;-62
2024/01/28 09:42:37;;;;;;;;;;;;;;;;;;5091578;28;1955;-61
2024/01/28 09:45:03;;;;;;;;;;;;;;;;;;5093104;28;852;-61
2024/01/28 09:47:28;;;;;;;;;;;;;;;;;;5093247;28;948;-62
2024/01/28 09:49:55;;;;;;;;;;;;;;;;;;5091724;28;1166;-62
2024/01/28 09:52:21;;;;;;;;;;;;;;;;;;5092947;28;863;-62
2024/01/28 09:54:46;;;;;;;;;;;;;;;;;;5092758;28;1003;-61
2024/01/28 09:57:11;;;;;;;;;;;;;;;;;;5092804;28;1063;-59
2024/01/28 09:59:37;;;;;;;;;;;;;;;;;;5095279;28;904;-60
2024/01/28 10:02:03;;;;;;;;;;;;;;;;;;5096443;28;1901;-60
2024/01/28 10:04:29;;;;;;;;;;;;;;;;;;5096962;28;877;-61
2024/01/28 10:06:57;;;;;;;;;;;;;;;;;;5096546;28;861;-61
2024/01/28 10:09:23;;;;;;;;;;;;;;;;;;5095918;28;852;-61
2024/01/28 10:11:48;;;;;;;;;;;;;;;;;;5096536;28;975;-61
2024/01/28 10:14:13;;;;;;;;;;;;;;;;;;5096024;28;978;-61
2024/01/28 10:16:38;;;;;;;;;;;;;;;;;;5096814;28;1209;-62
2024/01/28 10:19:05;;;;;;;;;;;;;;;;;;5096849;28;923;-61
2024/01/28 10:21:31;;;;;;;;;;;;;;;;;;5078322;28;1929;-61
2024/01/28 10:23:57;;;;;;;;;;;;;;;;;;5096512;28;883;-61
2024/01/28 10:26:22;;;;;;;;;;;;;;;;;;5078331;28;1295;-61
2024/01/28 10:28:47;;;;;;;;;;;;;;;;;;5096279;28;990;-61
2024/01/28 10:31:12;;;;;;;;;;;;;;;;;;5096213;28;939;-61
2024/01/28 10:33:38;;;;;;;;;;;;;;;;;;5096272;28;991;-60
2024/01/28 10:36:05;;;;;;;;;;;;;;;;;;5096140;28;970;-61
2024/01/28 10:38:32;;;;;;;;;;;;;;;;;;5096741;28;886;-60
2024/01/28 10:40:58;;;;;;;;;;;;;;;;;;5095739;28;1894;-60
2024/01/28 10:43:30;;;;;;;;;;;;;;;;;;5095543;28;960;-62
2024/01/28 10:45:55;;;;;;;;;;;;;;;;;;5095539;28;832;-61
2024/01/28 10:48:22;;;;;;;;;;;;;;;;;;5095485;28;911;-61
2024/01/28 10:50:50;;;;;;;;;;;;;;;;;;5094963;28;896;-61
2024/01/28 10:53:17;;;;;;;;;;;;;;;;;;5096075;28;990;-61
2024/01/28 10:55:42;;;;;;;;;;;;;;;;;;5095504;28;988;-61
2024/01/28 10:58:08;;;;;;;;;;;;;;;;;;5095452;28;816;-61
2024/01/28 11:00:34;;;;;;;;;;;;;;;;;;5095613;28;1898;-61
2024/01/28 11:03:00;;;;;;;;;;;;;;;;;;5095551;28;825;-61
2024/01/28 11:05:28;;;;;;;;;;;;;;;;;;5095716;28;899;-61
2024/01/28 11:07:59;;;;;;;;;;;;;;;;;;5095042;28;872;-62
2024/01/28 11:10:25;;;;;;;;;;;;;;;;;;5093091;28;862;-61
2024/01/28 11:12:51;;;;;;;;;;;;;;;;;;5094326;28;1002;-61
2024/01/28 11:15:19;;;;;;;;;;;;;;;;;;5094991;28;919;-61
2024/01/28 11:17:44;;;;;;;;;;;;;;;;;;5094276;28;935;-61
2024/01/28 11:20:10;;;;;;;;;;;;;;;;;;5094497;28;957;-61
2024/01/28 11:23:05;;;;;;;;;;;;;;;;;;5094356;28;1965;-60
2024/01/28 11:25:30;;;;;;;;;;;;;;;;;;5081046;28;1503;-60
2024/01/28 11:28:00;;;;;;;;;;;;;;;;;;5094373;28;855;-60
2024/01/28 11:30:25;;;;;;;;;;;;;;;;;;5094172;28;864;-61
2024/01/28 11:32:54;;;;;;;;;;;;;;;;;;5094828;28;844;-61
2024/01/28 11:35:19;;;;;;;;;;;;;;;;;;5092971;28;998;-61
2024/01/28 11:38:04;;;;;;;;;;;;;;;;;;5094233;28;813;-61
2024/01/28 11:40:35;;;;;;;;;;;;;;;;;;5094506;28;1910;-61
2024/01/28 11:43:00;;;;;;;;;;;;;;;;;;5094546;28;884;-60
2024/01/28 11:45:25;;;;;;;;;;;;;;;;;;5094358;28;971;-60
2024/01/28 11:47:50;;;;;;;;;;;;;;;;;;5094270;28;832;-60
2024/01/28 11:50:16;;;;;;;;;;;;;;;;;;5094580;28;1156;-61
2024/01/28 11:52:42;;;;;;;;;;;;;;;;;;5094353;28;863;-61
2024/01/28 11:55:10;;;;;;;;;;;;;;;;;;5093985;28;927;-61
2024/01/28 11:57:36;;;;;;;;;;;;;;;;;;5093606;28;879;-61
2024/01/28 12:00:01;;;;;;;;;;;;;;;;;;5094177;28;987;-61
2024/01/28 12:02:26;;;;;;;;;;;;;;;;;;5093955;28;1953;-61
2024/01/28 12:04:55;;;;;;;;;;;;;;;;;;5093972;28;876;-61
2024/01/28 12:07:21;;;;;;;;;;;;;;;;;;5094489;28;848;-61
2024/01/28 12:09:49;;;;;;;;;;;;;;;;;;5094169;28;816;-61
2024/01/28 12:12:14;;;;;;;;;;;;;;;;;;5094277;28;923;-61
2024/01/28 12:14:41;;;;;;;;;;;;;;;;;;5094288;28;856;-61
2024/01/28 12:17:06;;;;;;;;;;;;;;;;;;5093953;28;916;-61
2024/01/28 12:19:32;;;;;;;;;;;;;;;;;;5094058;28;967;-61
2024/01/28 12:21:58;;;;;;;;;;;;;;;;;;5093662;28;2018;-61
2024/01/28 12:24:23;;;;;;;;;;;;;;;;;;5093929;28;909;-61
2024/01/28 12:26:48;;;;;;;;;;;;;;;;;;5093698;28;1003;-61
2024/01/28 12:29:14;;;;;;;;;;;;;;;;;;5093688;28;816;-61
2024/01/28 12:31:39;;;;;;;;;;;;;;;;;;5093605;28;915;-61
2024/01/28 12:34:12;;;;;;;;;;;;;;;;;;5093069;28;832;-61
2024/01/28 12:36:37;;;;;;;;;;;;;;;;;;5093428;28;836;-61
2024/01/28 12:39:03;;;;;;;;;;;;;;;;;;5094129;28;974;-62
2024/01/28 12:41:29;;;;;;;;;;;;;;;;;;5093737;28;1977;-61
2024/01/28 12:43:54;;;;;;;;;;;;;;;;;;5093389;28;986;-62
2024/01/28 12:46:20;;;;;;;;;;;;;;;;;;5093895;28;947;-62
2024/01/28 12:48:45;;;;;;;;;;;;;;;;;;5093958;28;825;-61
2024/01/28 12:51:10;;;;;;;;;;;;;;;;;;5093253;28;832;-61
2024/01/28 12:53:35;;;;;;;;;;;;;;;;;;5093527;28;923;-61
2024/01/28 12:56:01;;;;;;;;;;;;;;;;;;5093540;28;907;-61
2024/01/28 12:58:26;;;;;;;;;;;;;;;;;;5093058;28;631;-62
2024/01/28 13:00:51;;;;;;;;;;;;;;;;;;5093281;28;1897;-61
2024/01/28 13:03:17;;;;;;;;;;;;;;;;;;5092893;28;1042;-61
2024/01/28 13:05:43;;;;;;;;;;;;;;;;;;5092973;28;986;-61
2024/01/28 13:08:08;;;;;;;;;;;;;;;;;;5093288;28;848;-61
2024/01/28 13:10:33;;;;;;;;;;;;;;;;;;5093286;28;880;-62
2024/01/28 13:12:58;;;;;;;;;;;;;;;;;;5092970;28;828;-62
2024/01/28 13:15:24;;;;;;;;;;;;;;;;;;5093198;28;758;-62
2024/01/28 13:17:49;;;;;;;;;;;;;;;;;;5092833;28;942;-62
2024/01/28 13:20:14;;;;;;;;;;;;;;;;;;5075035;28;1214;-62
2024/01/28 13:22:43;;;;;;;;;;;;;;;;;;5092952;28;1910;-61
2024/01/28 13:25:11;;;;;;;;;;;;;;;;;;5093105;28;950;-61
2024/01/28 13:27:37;;;;;;;;;;;;;;;;;;5092523;28;1014;-62
2024/01/28 13:30:03;;;;;;;;;;;;;;;;;;5093174;28;915;-61
2024/01/28 13:32:29;;;;;;;;;;;;;;;;;;5092686;28;860;-61
2024/01/28 13:34:54;;;;;;;;;;;;;;;;;;5095386;28;865;-61
2024/01/28 13:37:19;;;;;;;;;;;;;;;;;;5097076;28;848;-62
2024/01/28 13:39:45;;;;;;;;;;;;;;;;;;5096489;28;936;-62
2024/01/28 13:42:10;;;;;;;;;;;;;;;;;;5095928;28;1893;-62
2024/01/28 13:44:35;;;;;;;;;;;;;;;;;;5097387;28;991;-61
2024/01/28 13:47:02;;;;;;;;;;;;;;;;;;5097528;28;754;-62
2024/01/28 13:49:28;;;;;;;;;;;;;;;;;;5079013;28;891;-62
2024/01/28 13:51:53;;;;;;;;;;;;;;;;;;5097180;28;852;-62
2024/01/28 13:54:18;;;;;;;;;;;;;;;;;;5097360;28;931;-61
2024/01/28 13:56:44;;;;;;;;;;;;;;;;;;5096839;28;984;-62
2024/01/28 13:59:09;;;;;;;;;;;;;;;;;;5097230;28;840;-62
2024/01/28 14:01:35;;;;;;;;;;;;;;;;;;5096788;28;1887;-62
2024/01/28 14:04:00;;;;;;;;;;;;;;;;;;5097403;28;816;-62
2024/01/28 14:06:25;;;;;;;;;;;;;;;;;;5094775;28;1261;-62
2024/01/28 14:08:51;;;;;;;;;;;;;;;;;;5096901;28;915;-61
2024/01/28 14:11:16;;;;;;;;;;;;;;;;;;5093768;28;1123;-61
2024/01/28 14:13:41;;;;;;;;;;;;;;;;;;5092933;28;1167;-62
2024/01/28 14:16:07;;;;;;;;;;;;;;;;;;5096507;28;868;-62
2024/01/28 14:18:33;;;;;;;;;;;;;;;;;;5096428;28;1015;-62
2024/01/28 14:20:58;;;;;;;;;;;;;;;;;;5096589;28;1967;-62
2024/01/28 14:23:23;;;;;;;;;;;;;;;;;;5096582;28;915;-62
2024/01/28 14:25:49;;;;;;;;;;;;;;;;;;5096570;28;844;-62
2024/01/28 14:28:14;;;;;;;;;;;;;;;;;;5096257;28;892;-62
2024/01/28 14:30:39;;;;;;;;;;;;;;;;;;5096267;28;828;-62
2024/01/28 14:33:05;;;;;;;;;;;;;;;;;;5096085;28;974;-62
2024/01/28 14:35:30;;;;;;;;;;;;;;;;;;5096289;28;883;-61
2024/01/28 14:37:55;;;;;;;;;;;;;;;;;;5095907;28;968;-61
2024/01/28 14:40:21;;;;;;;;;;;;;;;;;;5076742;28;1211;-61
2024/01/28 14:42:46;;;;;;;;;;;;;;;;;;5095357;28;1969;-61
2024/01/28 14:45:11;;;;;;;;;;;;;;;;;;5095701;28;950;-61
2024/01/28 14:47:37;;;;;;;;;;;;;;;;;;5095627;28;943;-62
2024/01/28 14:50:02;;;;;;;;;;;;;;;;;;5094898;28;1162;-61
2024/01/28 14:52:29;;;;;;;;;;;;;;;;;;5077483;28;1952;-61
2024/01/28 14:54:54;;;;;;;;;;;;;;;;;;5077488;28;855;-62
2024/01/28 14:57:19;;;;;;;;;;;;;;;;;;5111419;28;961;-62
2024/01/28 14:59:45;;;;;;;;;;;;;;;;;;5114705;28;859;-62
2024/01/28 15:02:10;;;;;;;;;;;;;;;;;;5115712;28;1905;-62
2024/01/28 15:04:36;;;;;;;;;;;;;;;;;;5116022;28;820;-61
2024/01/28 15:07:01;;;;;;;;;;;;;;;;;;5116283;28;792;-62
2024/01/28 15:09:26;;;;;;;;;;;;;;;;;;5115793;28;836;-61
2024/01/28 15:11:52;;;;;;;;;;;;;;;;;;5113737;28;1496;-61
2024/01/28 15:14:17;;;;;;;;;;;;;;;;;;5113127;28;1195;-68
2024/01/28 15:16:42;;;;;;;;;;;;;;;;;;5112713;28;1206;-67
2024/01/28 15:19:08;;;;;;;;;;;;;;;;;;5108631;28;1135;-67
2024/01/28 15:21:34;;;;;;;;;;;;;;;;;;5094471;28;1897;-68
2024/01/28 15:23:59;;;;;;;;;;;;;;;;;;5094964;28;1043;-67
2024/01/28 15:26:25;;;;;;;;;;;;;;;;;;5093687;28;1225;-67
2024/01/28 15:28:50;;;;;;;;;;;;;;;;;;5094775;28;812;-67
2024/01/28 15:31:15;;;;;;;;;;;;;;;;;;5095133;28;868;-67
2024/01/28 15:33:41;;;;;;;;;;;;;;;;;;5094520;28;1097;-66
2024/01/28 15:36:07;;;;;;;;;;;;;;;;;;5094701;28;879;-68
2024/01/28 15:38:33;;;;;;;;;;;;;;;;;;5095141;28;840;-68
2024/01/28 15:40:58;;;;;;;;;;;;;;;;;;5094966;28;1902;-67
2024/01/28 15:43:23;;;;;;;;;;;;;;;;;;5094914;28;1091;-68
2024/01/28 15:45:48;;;;;;;;;;;;;;;;;;5094590;28;919;-67
2024/01/28 15:48:14;;;;;;;;;;;;;;;;;;5094628;28;824;-67
2024/01/28 15:50:39;;;;;;;;;;;;;;;;;;5094774;28;938;-66
2024/01/28 15:53:05;;;;;;;;;;;;;;;;;;5094384;28;1138;-67
2024/01/28 15:55:30;;;;;;;;;;;;;;;;;;5094182;28;1026;-66
2024/01/28 15:57:55;;;;;;;;;;;;;;;;;;5094457;28;1063;-61
2024/01/28 16:00:20;;;;;;;;;;;;;;;;;;5094066;28;1011;-61
2024/01/28 16:02:46;;;;;;;;;;;;;;;;;;5094473;28;1953;-61
2024/01/28 16:05:11;;;;;;;;;;;;;;;;;;5094862;28;889;-61
2024/01/28 16:07:37;;;;;;;;;;;;;;;;;;5094399;28;987;-61
2024/01/28 16:10:02;;;;;;;;;;;;;;;;;;5094730;28;840;-61
2024/01/28 16:12:28;;;;;;;;;;;;;;;;;;5094213;28;1242;-61
2024/01/28 16:14:53;;;;;;;;;;;;;;;;;;5091078;28;1253;-61
2024/01/28 16:17:23;;;;;;;;;;;;;;;;;;5092249;28;1195;-61
2024/01/28 16:19:48;;;;;;;;;;;;;;;;;;5094069;28;849;-61
2024/01/28 16:22:13;;;;;;;;;;;;;;;;;;5093643;28;1965;-61
2024/01/28 16:24:38;;;;;;;;;;;;;;;;;;5094126;28;1006;-62
2024/01/28 16:27:04;;;;;;;;;;;;;;;;;;5094766;28;836;-62
2024/01/28 16:29:29;;;;;;;;;;;;;;;;;;5093513;28;1143;-61
2024/01/28 16:31:55;;;;;;;;;;;;;;;;;;5093351;28;1256;-61
2024/01/28 16:34:20;;;;;;;;;;;;;;;;;;5075605;28;1130;-62
2024/01/28 16:36:45;;;;;;;;;;;;;;;;;;5093706;28;971;-61
2024/01/28 16:39:10;;;;;;;;;;;;;;;;;;5093422;28;848;-62
2024/01/28 16:41:35;;;;;;;;;;;;;;;;;;5093681;28;1943;-62
2024/01/28 16:44:01;;;;;;;;;;;;;;;;;;5092386;28;876;-61
2024/01/28 16:46:26;;;;;;;;;;;;;;;;;;5093760;28;860;-62
2024/01/28 16:48:52;;;;;;;;;;;;;;;;;;5093454;28;1003;-61
2024/01/28 16:51:17;;;;;;;;;;;;;;;;;;5094034;28;899;-62
2024/01/28 16:53:42;;;;;;;;;;;;;;;;;;5093387;28;852;-62
2024/01/28 16:56:07;;;;;;;;;;;;;;;;;;5095608;28;1226;-62
2024/01/28 16:58:33;;;;;;;;;;;;;;;;;;5107434;28;1151;-62
2024/01/28 17:00:58;;;;;;;;;;;;;;;;;;5090416;28;1909;-62
2024/01/28 17:03:23;;;;;;;;;;;;;;;;;;5092480;28;1147;-62